TimeCET,TemperatureF,Dew PointF,Humidity,Sea Level PressureIn,VisibilityMPH,Wind Direction,Wind SpeedMPH,Gust SpeedMPH,PrecipitationIn,Events,Conditions,WindDirDegrees,DateUTC
1:00 AM,50,49,95,30.22,,North,8.1,,,,,0,2012-12-09 00:00:00
5:00 AM,44.6,42.8,93,30.18,-9999.0,Calm,Calm,-,N/A,,Clear,0,2012-12-09 04:00:00
5:30 AM,42.8,42.8,100,30.21,-9999.0,NW,3.5,-,N/A,,Clear,320,2012-12-09 04:30:00
6:00 AM,42.8,42.8,100,30.21,-9999.0,NNW,4.6,-,N/A,,Clear,340,2012-12-09 05:00:00
6:30 AM,42.8,42.8,100,30.21,-9999.0,North,4.6,-,N/A,,Clear,10,2012-12-09 05:30:00
7:00 AM,42,42,99,30.23,12,North,4.6,,,,,350,2012-12-09 06:00:00
7:00 AM,42.8,41.0,93,30.21,-9999.0,North,4.6,-,N/A,,Clear,350,2012-12-09 06:00:00
7:30 AM,42.8,41.0,93,30.21,-9999.0,Variable,1.2,-,N/A,,Clear,0,2012-12-09 06:30:00
8:00 AM,42.8,41.0,93,30.24,6.2,Variable,1.2,-,N/A,,Partly Cloudy,0,2012-12-09 07:00:00
8:30 AM,41.0,41.0,100,30.24,6.2,Variable,1.2,-,N/A,,Partly Cloudy,0,2012-12-09 07:30:00
9:00 AM,41.0,41.0,100,30.24,-9999.0,Variable,1.2,-,N/A,,Clear,0,2012-12-09 08:00:00
9:30 AM,42.8,42.8,100,30.24,-9999.0,Variable,2.3,-,N/A,,Clear,0,2012-12-09 08:30:00
10:00 AM,44.6,42.8,93,30.24,6.2,North,3.5,-,N/A,,Partly Cloudy,10,2012-12-09 09:00:00
10:30 AM,48.2,44.6,87,30.24,6.2,Variable,2.3,-,N/A,,Partly Cloudy,0,2012-12-09 09:30:00
11:00 AM,50.0,46.4,87,30.27,6.2,NNE,3.5,-,N/A,,Partly Cloudy,20,2012-12-09 10:00:00
11:30 AM,53.6,46.4,77,30.27,6.2,Variable,2.3,-,N/A,,Partly Cloudy,0,2012-12-09 10:30:00
12:00 PM,55.4,48.2,77,30.24,6.2,Variable,2.3,-,N/A,,Partly Cloudy,0,2012-12-09 11:00:00
12:30 PM,57.2,48.2,72,30.24,6.2,North,4.6,-,N/A,,Partly Cloudy,10,2012-12-09 11:30:00
1:00 PM,60,52,66,30.25,19,NNW,6.9,,,,Scattered Clouds,340,2012-12-09 12:00:00
1:00 PM,59.0,50.0,72,30.24,6.2,North,6.9,-,N/A,,Partly Cloudy,350,2012-12-09 12:00:00
1:30 PM,59.0,50.0,72,30.24,6.2,North,9.2,-,N/A,,Partly Cloudy,350,2012-12-09 12:30:00
2:00 PM,60.8,51.8,72,30.21,6.2,North,9.2,-,N/A,,Partly Cloudy,360,2012-12-09 13:00:00
2:30 PM,62.6,51.8,68,30.21,6.2,North,9.2,-,N/A,,Partly Cloudy,360,2012-12-09 13:30:00
3:00 PM,60.8,51.8,72,30.21,6.2,North,9.2,-,N/A,,Partly Cloudy,360,2012-12-09 14:00:00
3:30 PM,62.6,51.8,68,30.18,6.2,North,9.2,-,N/A,,Partly Cloudy,10,2012-12-09 14:30:00
4:00 PM,60.8,51.8,72,30.18,6.2,North,10.4,-,N/A,,Partly Cloudy,10,2012-12-09 15:00:00
4:30 PM,60.8,50.0,68,30.18,6.2,North,10.4,-,N/A,,Partly Cloudy,10,2012-12-09 15:30:00
5:00 PM,60.8,51.8,72,30.18,6.2,NNE,9.2,-,N/A,,Partly Cloudy,20,2012-12-09 16:00:00
5:30 PM,59.0,51.8,77,30.21,6.2,NNE,9.2,-,N/A,,Partly Cloudy,20,2012-12-09 16:30:00
6:00 PM,57.2,51.8,82,30.21,6.2,North,8.1,-,N/A,,Scattered Clouds,10,2012-12-09 17:00:00
6:30 PM,55.4,50.0,82,30.21,6.2,NNE,5.8,-,N/A,,Scattered Clouds,20,2012-12-09 17:30:00
7:00 PM,55,52,84,30.23,12,NNE,2.3,,,,Partly Cloudy,30,2012-12-09 18:00:00
7:00 PM,55.4,50.0,82,30.21,6.2,Variable,2.3,-,N/A,,Scattered Clouds,0,2012-12-09 18:00:00
7:30 PM,55.4,50.0,82,30.21,6.2,Variable,1.2,-,N/A,,Partly Cloudy,0,2012-12-09 18:30:00
8:00 PM,55.4,50.0,82,30.21,6.2,Variable,1.2,-,N/A,,Partly Cloudy,0,2012-12-09 19:00:00
8:30 PM,53.6,50.0,88,30.21,6.2,Variable,2.3,-,N/A,,Partly Cloudy,0,2012-12-09 19:30:00
9:00 PM,53.6,51.8,94,30.24,6.2,SW,4.6,-,N/A,,Scattered Clouds,230,2012-12-09 20:00:00
9:30 PM,53.6,50.0,88,30.21,6.2,Variable,2.3,-,N/A,,Scattered Clouds,0,2012-12-09 20:30:00
10:00 PM,51.8,50.0,94,30.21,6.2,Calm,Calm,-,N/A,,Partly Cloudy,0,2012-12-09 21:00:00
10:30 PM,50.0,48.2,94,30.21,6.2,Variable,1.2,-,N/A,,Partly Cloudy,0,2012-12-09 21:30:00
11:00 PM,50.0,50.0,100,30.21,6.2,Calm,Calm,-,N/A,,Partly Cloudy,0,2012-12-09 22:00:00